createdAt,value
2018-07-14T07:06:43.751Z,17.30
2018-07-14T07:09:13.000Z,17.00
2018-07-14T07:11:41.761Z,17.00
2018-07-14T07:14:10.531Z,17.10
2018-07-14T07:16:39.961Z,17.40
2018-07-14T07:19:08.822Z,17.60
2018-07-14T07:21:38.863Z,17.60
2018-07-14T07:24:07.874Z,17.60
2018-07-14T07:26:37.080Z,17.50
2018-07-14T07:29:05.861Z,17.40
2018-07-14T07:31:35.370Z,17.50
2018-07-14T07:34:04.314Z,17.30
2018-07-14T07:36:33.572Z,17.20
2018-07-14T07:39:02.537Z,17.30
2018-07-14T07:41:31.941Z,17.10
2018-07-14T07:44:00.849Z,17.10
2018-07-14T07:46:30.078Z,17.40
2018-07-14T07:48:58.792Z,17.60
2018-07-14T07:51:27.585Z,17.70
2018-07-14T07:53:57.124Z,17.60
2018-07-14T07:56:25.998Z,17.80
2018-07-14T07:58:54.798Z,17.80
2018-07-14T08:01:23.845Z,18.00
2018-07-14T08:03:52.754Z,18.20
2018-07-14T08:06:21.622Z,18.30
2018-07-14T08:08:50.780Z,18.30
2018-07-14T08:11:20.145Z,18.10
2018-07-14T08:13:48.853Z,17.80
2018-07-14T08:16:17.679Z,17.90
2018-07-14T08:21:14.969Z,18.00
2018-07-14T08:26:12.657Z,17.60
2018-07-14T08:28:41.656Z,17.60
2018-07-14T08:31:10.518Z,17.50
2018-07-14T08:33:39.338Z,17.70
2018-07-14T08:36:08.281Z,17.80
2018-07-14T08:38:37.046Z,17.90
2018-07-14T08:41:06.029Z,17.90
2018-07-14T08:43:34.863Z,18.00
2018-07-14T08:48:32.198Z,17.90
2018-07-14T08:51:01.694Z,17.60
2018-07-14T08:53:30.569Z,17.50
2018-07-14T08:55:59.429Z,17.50
2018-07-14T08:58:28.251Z,17.40
2018-07-14T09:00:58.913Z,17.20
2018-07-14T09:03:27.742Z,17.40
2018-07-14T09:06:02.758Z,17.40
2018-07-14T09:08:31.537Z,17.40
2018-07-14T09:11:03.904Z,17.50
2018-07-14T09:13:33.047Z,17.80
2018-07-14T09:16:01.990Z,17.80
2018-07-14T09:18:30.779Z,17.70
2018-07-14T09:20:59.474Z,17.70
2018-07-14T09:23:28.145Z,17.70
2018-07-14T09:25:57.911Z,17.80
2018-07-14T09:28:26.664Z,17.80
2018-07-14T09:30:55.763Z,18.00
2018-07-14T09:33:25.265Z,18.10
2018-07-14T09:38:22.138Z,18.30
2018-07-14T09:40:51.375Z,18.10
2018-07-14T09:43:20.753Z,18.20
2018-07-14T09:45:49.544Z,18.50
2018-07-14T09:48:20.274Z,18.60
2018-07-14T09:50:54.079Z,18.70
2018-07-14T09:53:23.976Z,18.80
2018-07-14T09:55:54.828Z,18.90
2018-07-14T09:58:23.735Z,19.00
2018-07-14T10:00:58.328Z,18.70
2018-07-14T10:03:27.723Z,18.80
2018-07-14T10:05:56.641Z,18.60
2018-07-14T10:08:25.896Z,18.60
2018-07-14T10:10:54.689Z,18.90
2018-07-14T10:15:52.291Z,19.00
2018-07-14T10:18:21.209Z,18.90
2018-07-14T10:20:50.129Z,18.80
2018-07-14T10:23:19.268Z,18.80
2018-07-14T10:25:48.239Z,18.80
2018-07-14T10:28:17.308Z,18.80
2018-07-14T10:30:46.203Z,18.90
2018-07-14T10:33:15.086Z,19.10
2018-07-14T10:35:44.629Z,19.40
2018-07-14T10:38:13.553Z,19.30
2018-07-14T10:40:42.523Z,19.40
2018-07-14T10:43:12.058Z,19.10
2018-07-14T10:48:15.353Z,18.90
2018-07-14T10:50:44.132Z,19.10
2018-07-14T10:53:13.008Z,19.40
2018-07-14T10:55:41.900Z,19.60
2018-07-14T10:58:10.635Z,19.70
2018-07-14T11:00:39.415Z,19.40
2018-07-14T11:03:08.090Z,19.50
2018-07-14T11:05:36.746Z,19.40
2018-07-14T11:08:05.664Z,19.30
2018-07-14T11:10:35.744Z,19.40
2018-07-14T11:13:04.522Z,19.40
2018-07-14T11:18:01.585Z,19.10
2018-07-14T11:20:30.302Z,19.10
2018-07-14T11:22:58.962Z,19.00
2018-07-14T11:25:27.868Z,19.00
2018-07-14T11:27:56.806Z,19.00
2018-07-14T11:30:26.420Z,18.80
2018-07-14T11:32:55.276Z,18.80
2018-07-14T11:35:24.037Z,18.80
2018-07-14T11:37:52.811Z,18.90
2018-07-14T11:40:21.767Z,18.90
2018-07-14T11:42:50.567Z,19.00
2018-07-14T11:45:19.438Z,19.20
2018-07-14T11:47:48.451Z,19.20
2018-07-14T11:50:17.170Z,19.40
2018-07-14T11:52:45.975Z,19.30
2018-07-14T11:55:14.834Z,19.40
2018-07-14T11:57:43.742Z,19.50
2018-07-14T12:00:12.515Z,19.30
2018-07-14T12:02:41.673Z,19.30
2018-07-14T12:05:10.484Z,19.50
2018-07-14T12:07:39.809Z,19.50
2018-07-14T12:10:08.836Z,19.60
2018-07-14T12:12:37.845Z,19.50
2018-07-14T12:15:06.621Z,19.30
2018-07-14T12:17:35.468Z,19.40
2018-07-14T12:20:05.262Z,19.50
2018-07-14T12:22:34.547Z,19.50
2018-07-14T12:25:03.340Z,19.80
2018-07-14T12:27:32.108Z,19.90
2018-07-14T12:30:01.077Z,20.00
2018-07-14T12:32:30.070Z,20.30
2018-07-14T12:34:58.937Z,20.10
2018-07-14T12:37:28.383Z,20.20
2018-07-14T12:39:57.060Z,20.20
2018-07-14T12:42:25.684Z,19.80
2018-07-14T12:44:54.549Z,19.90
2018-07-14T12:47:23.487Z,19.90
2018-07-14T12:49:52.122Z,19.90
2018-07-14T12:52:20.929Z,19.90
2018-07-14T12:54:49.680Z,20.00
2018-07-14T13:02:15.125Z,19.70
2018-07-14T13:04:43.945Z,19.90
2018-07-14T13:07:12.742Z,20.00
2018-07-14T13:09:41.428Z,20.20
2018-07-14T13:12:11.167Z,20.10
2018-07-14T13:14:39.917Z,19.60
2018-07-14T13:17:08.709Z,19.70
2018-07-14T13:19:37.642Z,20.00
2018-07-14T13:22:06.345Z,20.40
2018-07-14T13:24:35.617Z,20.30
2018-07-14T13:27:04.527Z,20.20
2018-07-14T13:29:33.339Z,20.20
2018-07-14T13:32:02.235Z,20.20
2018-07-14T13:36:59.661Z,20.30
2018-07-14T13:39:29.454Z,20.10
2018-07-14T13:41:58.177Z,20.10
2018-07-14T13:44:26.912Z,20.30
2018-07-14T13:46:55.766Z,20.00
2018-07-14T13:49:25.407Z,20.20
2018-07-14T13:51:54.287Z,20.30
2018-07-14T13:54:23.340Z,20.10
2018-07-14T13:56:52.135Z,20.00
2018-07-14T13:59:21.260Z,19.90
2018-07-14T14:01:49.929Z,20.00
2018-07-14T14:04:19.076Z,20.00
2018-07-14T14:06:47.705Z,20.10
2018-07-14T14:09:16.771Z,20.10
2018-07-14T14:11:45.577Z,20.20
2018-07-14T14:14:14.337Z,20.00
2018-07-14T14:16:43.193Z,19.90
2018-07-14T14:19:11.914Z,19.90
2018-07-14T14:21:41.130Z,20.00
2018-07-14T14:24:09.836Z,20.10
2018-07-14T14:29:07.720Z,20.00
2018-07-14T14:31:36.519Z,19.50
2018-07-14T14:34:05.405Z,19.50
2018-07-14T14:36:34.658Z,19.70
2018-07-14T14:39:03.805Z,19.80
2018-07-14T14:41:32.659Z,20.00
2018-07-14T14:44:01.417Z,20.10
2018-07-14T14:46:30.221Z,20.00
2018-07-14T14:48:59.102Z,19.90
2018-07-14T14:51:28.717Z,20.00
2018-07-14T14:53:57.628Z,20.10
2018-07-14T14:58:55.373Z,19.80
2018-07-14T15:01:24.591Z,19.70
2018-07-14T15:03:53.433Z,19.90
2018-07-14T15:06:22.222Z,20.00
2018-07-14T15:08:51.178Z,20.00
2018-07-14T15:11:19.961Z,20.00
2018-07-14T15:13:48.701Z,19.90
2018-07-14T15:16:18.009Z,19.70
2018-07-14T15:18:47.269Z,19.80
2018-07-14T15:21:16.083Z,19.70
2018-07-14T15:23:44.900Z,19.90
2018-07-14T15:26:13.706Z,20.00
2018-07-14T15:28:42.416Z,20.00
2018-07-14T15:31:11.228Z,20.20
2018-07-14T15:33:39.974Z,20.30
2018-07-14T15:36:08.836Z,20.50
2018-07-14T15:38:38.567Z,20.50
2018-07-14T15:41:07.228Z,20.30
2018-07-14T15:43:36.021Z,20.40
2018-07-14T15:46:05.088Z,20.50
2018-07-14T15:48:34.300Z,20.30
2018-07-14T15:51:03.472Z,20.40
2018-07-14T15:53:32.800Z,20.40
2018-07-14T15:56:01.880Z,20.80
2018-07-14T15:58:30.959Z,20.90
2018-07-14T16:00:59.785Z,20.80
2018-07-14T16:03:29.243Z,20.50
2018-07-14T16:05:58.938Z,20.20
2018-07-14T16:08:28.090Z,20.00
2018-07-14T16:10:57.197Z,20.00
2018-07-14T16:13:26.696Z,20.10
2018-07-14T16:15:55.848Z,20.10
2018-07-14T16:18:25.291Z,20.20
2018-07-14T16:20:54.928Z,20.20
2018-07-14T16:23:23.852Z,20.30
2018-07-14T16:25:52.886Z,20.20
2018-07-14T16:28:23.095Z,20.10
2018-07-14T16:30:52.065Z,20.10
2018-07-14T16:33:21.151Z,20.10
2018-07-14T16:35:50.307Z,20.00
2018-07-14T16:38:19.985Z,20.00
2018-07-14T16:40:49.875Z,20.20
2018-07-14T16:43:18.640Z,20.30
2018-07-14T16:45:47.669Z,20.00
2018-07-14T16:48:16.491Z,20.00
2018-07-14T16:53:14.013Z,20.20
2018-07-14T16:55:42.853Z,20.20
2018-07-14T16:58:12.202Z,19.80
2018-07-14T17:00:40.897Z,20.10
2018-07-14T17:03:09.576Z,20.40
2018-07-14T17:05:38.685Z,20.00
2018-07-14T17:08:07.567Z,19.90
2018-07-14T17:20:29.809Z,19.90
2018-07-14T17:25:27.221Z,19.90
2018-07-14T17:37:49.577Z,20.00
2018-07-14T17:42:47.124Z,19.80
2018-07-14T17:47:44.242Z,19.90
2018-07-14T18:02:36.064Z,19.70
2018-07-14T18:05:04.921Z,19.90
2018-07-14T18:07:34.386Z,20.00
2018-07-14T18:10:03.161Z,19.80
2018-07-14T18:12:31.914Z,19.70
2018-07-14T18:15:00.700Z,19.70
2018-07-14T18:17:30.026Z,19.50
2018-07-14T18:19:58.688Z,19.40
2018-07-14T18:22:27.761Z,19.30
2018-07-14T18:24:56.445Z,19.20
2018-07-14T18:27:25.158Z,19.30
2018-07-14T18:29:53.916Z,19.40
2018-07-14T18:32:22.629Z,19.30
2018-07-14T18:34:52.120Z,19.40
2018-07-14T18:37:21.593Z,19.30
2018-07-14T18:39:50.362Z,19.20
2018-07-14T18:42:19.089Z,19.20
2018-07-14T18:44:47.984Z,19.30
2018-07-14T18:47:16.640Z,19.30
2018-07-14T18:49:45.353Z,19.20
2018-07-14T18:52:14.203Z,19.20
2018-07-14T18:54:42.975Z,19.00
2018-07-14T18:57:11.609Z,18.90
2018-07-14T18:59:40.297Z,19.00
2018-07-14T19:02:09.223Z,18.90
2018-07-14T19:04:37.896Z,18.90
2018-07-14T19:07:06.627Z,18.90
2018-07-14T19:09:35.458Z,18.90
2018-07-14T19:12:04.112Z,18.80
2018-07-14T19:14:32.947Z,18.80
2018-07-14T19:17:01.578Z,18.70
2018-07-14T19:19:30.363Z,18.60
2018-07-14T19:21:59.700Z,18.70
2018-07-14T19:24:28.581Z,18.70
2018-07-14T19:26:57.644Z,18.60
2018-07-14T19:29:26.553Z,18.50
2018-07-14T19:31:55.219Z,18.60
2018-07-14T19:34:24.197Z,18.60
2018-07-14T19:36:52.949Z,18.60
2018-07-14T19:39:21.799Z,18.50
2018-07-14T19:41:50.769Z,18.30
2018-07-14T19:44:19.571Z,18.20
2018-07-14T19:46:48.290Z,18.00
2018-07-14T19:49:17.256Z,18.00
2018-07-14T19:54:15.626Z,17.90
2018-07-14T19:56:44.397Z,17.90
2018-07-14T19:59:13.864Z,17.90
2018-07-14T20:01:43.724Z,17.90
2018-07-14T20:04:12.549Z,18.00
2018-07-14T20:06:41.317Z,17.90
2018-07-14T20:09:10.636Z,17.90
2018-07-14T20:11:39.474Z,17.80
2018-07-14T20:14:08.090Z,17.80
2018-07-14T20:16:36.883Z,17.80
2018-07-14T20:19:05.616Z,17.80
2018-07-14T20:21:34.286Z,17.90
2018-07-14T20:24:03.135Z,17.70
2018-07-14T20:26:31.895Z,17.70
2018-07-14T20:29:00.530Z,17.60
2018-07-14T20:31:29.254Z,17.50
2018-07-14T20:33:58.023Z,17.50
2018-07-14T20:36:27.478Z,17.40
2018-07-14T20:38:56.344Z,17.40
2018-07-14T20:41:25.147Z,17.30
2018-07-14T20:43:53.924Z,17.40
2018-07-14T20:46:22.708Z,17.40
2018-07-14T20:48:51.518Z,17.30
2018-07-14T20:51:20.184Z,17.10
2018-07-14T20:53:49.042Z,17.10
2018-07-14T20:56:18.090Z,17.10
2018-07-14T21:01:15.378Z,17.10
2018-07-14T21:03:44.145Z,17.00
2018-07-14T21:06:12.829Z,16.90
2018-07-14T21:11:10.097Z,16.70
2018-07-14T21:13:38.930Z,16.70
2018-07-14T21:16:07.913Z,16.60
2018-07-14T21:18:36.704Z,16.60
2018-07-14T21:21:05.632Z,16.50
2018-07-14T21:23:34.547Z,16.60
2018-07-14T21:26:03.166Z,16.60
2018-07-14T21:28:32.368Z,16.60
2018-07-14T21:31:01.095Z,16.50
2018-07-14T21:33:29.968Z,16.50
2018-07-14T21:35:58.698Z,16.40
2018-07-14T21:38:27.374Z,16.40
2018-07-14T21:40:56.139Z,16.30
2018-07-14T21:43:24.999Z,16.30
2018-07-14T21:45:53.925Z,16.30
2018-07-14T21:48:22.733Z,16.40
2018-07-14T21:50:51.438Z,16.30
2018-07-14T21:53:20.199Z,16.30
2018-07-14T21:55:48.970Z,16.40
2018-07-14T21:58:17.769Z,16.30
2018-07-14T22:03:20.337Z,16.20
2018-07-14T22:05:49.623Z,16.20
2018-07-14T22:08:18.730Z,16.10
2018-07-14T22:10:47.440Z,16.10
2018-07-14T22:15:44.604Z,16.00
2018-07-14T22:18:13.290Z,15.80
2018-07-14T22:20:41.927Z,15.90
2018-07-14T22:23:10.599Z,15.90
2018-07-14T22:25:39.376Z,15.80
2018-07-14T22:28:08.013Z,15.80
2018-07-14T22:30:36.879Z,15.80
2018-07-14T22:33:05.594Z,15.80
2018-07-14T22:35:34.314Z,15.80
2018-07-14T22:38:03.081Z,15.80
2018-07-14T22:40:31.873Z,15.80
2018-07-14T22:43:00.718Z,15.70
2018-07-14T22:45:29.526Z,15.60
2018-07-14T22:49:49.445Z,15.60
2018-07-14T22:52:18.600Z,15.60
2018-07-14T22:54:47.295Z,15.70
2018-07-14T22:57:16.233Z,15.70
2018-07-14T22:59:45.557Z,15.60
2018-07-14T23:02:15.647Z,15.60
2018-07-14T23:04:45.154Z,15.60
2018-07-14T23:07:13.864Z,15.60
2018-07-14T23:09:42.657Z,15.50
2018-07-14T23:12:11.406Z,15.60
2018-07-14T23:14:40.204Z,15.70
2018-07-14T23:17:10.059Z,15.70
2018-07-14T23:19:38.916Z,15.70
2018-07-14T23:22:08.960Z,15.70
2018-07-14T23:24:37.764Z,15.80
2018-07-14T23:27:06.427Z,15.80
2018-07-14T23:29:35.104Z,15.80
2018-07-14T23:32:04.697Z,15.80
2018-07-14T23:34:33.382Z,15.80
2018-07-14T23:37:02.060Z,15.80
2018-07-14T23:39:30.769Z,15.80
2018-07-14T23:42:00.323Z,15.70
2018-07-14T23:44:29.418Z,15.70
2018-07-14T23:46:58.590Z,15.70
2018-07-14T23:49:27.554Z,15.60
2018-07-14T23:51:57.034Z,15.70
2018-07-14T23:54:25.979Z,15.50
2018-07-14T23:56:55.763Z,15.50
2018-07-14T23:59:24.782Z,15.50
